Time;durP1;ratioP1;P1;durP2;ratioP2;P2;SDS_P1;SDS_P2;PMS_P1;PMS_P2;Temp;Humidity;BMP_temperature;BMP_pressure;BME280_temperature;BME280_humidity;BME280_pressure;Samples;Min_cycle;Max_cycle;Signal;HPM_P1;HPM_P2
2021/08/11 00:00:52;;;;;;;5.20;4.20;;;16.30;99.90;;;;;;5077090;28;20848;-74
2021/08/11 00:03:19;;;;;;;4.10;3.70;;;16.20;99.90;;;;;;5077082;28;20894;-74
2021/08/11 00:05:46;;;;;;;4.00;3.57;;;16.20;99.90;;;;;;5076490;28;20462;-74
2021/08/11 00:08:13;;;;;;;4.60;4.20;;;16.30;99.90;;;;;;5076904;28;20465;-74
2021/08/11 00:10:40;;;;;;;4.27;3.43;;;16.30;99.90;;;;;;5076859;28;20572;-74
2021/08/11 00:13:07;;;;;;;5.43;3.80;;;16.30;99.90;;;;;;5076747;28;20454;-74
2021/08/11 00:15:35;;;;;;;4.27;3.47;;;16.30;99.90;;;;;;5076925;28;20458;-74
2021/08/11 00:18:02;;;;;;;3.60;3.30;;;16.30;99.90;;;;;;5076543;28;20481;-74
2021/08/11 00:20:29;;;;;;;3.07;2.87;;;16.30;99.90;;;;;;5076502;28;20469;-74
2021/08/11 00:22:55;;;;;;;3.77;2.40;;;16.30;99.90;;;;;;5076490;28;20482;-74
2021/08/11 00:25:23;;;;;;;3.87;2.67;;;16.30;99.90;;;;;;5076383;28;20458;-74
2021/08/11 00:27:50;;;;;;;2.83;2.40;;;16.30;99.90;;;;;;5076662;28;20484;-75
2021/08/11 00:30:19;;;;;;;3.40;3.03;;;16.20;99.90;;;;;;5076750;28;20463;-75
2021/08/11 00:32:47;;;;;;;3.27;2.73;;;16.20;99.90;;;;;;5076320;28;20461;-74
2021/08/11 00:35:13;;;;;;;3.30;2.90;;;16.20;99.90;;;;;;5076424;28;20789;-74
2021/08/11 00:37:40;;;;;;;3.23;3.00;;;16.10;99.90;;;;;;5075968;28;20461;-75
2021/08/11 00:40:08;;;;;;;5.70;3.00;;;16.10;99.90;;;;;;5075716;28;20496;-74
2021/08/11 00:42:35;;;;;;;4.60;2.77;;;16.10;99.90;;;;;;5075868;28;20965;-74
2021/08/11 00:45:02;;;;;;;4.30;3.20;;;16.10;99.90;;;;;;5076032;28;20489;-74
2021/08/11 00:47:32;;;;;;;3.67;3.37;;;16.10;99.90;;;;;;5075770;28;20458;-75
2021/08/11 00:50:00;;;;;;;3.10;2.80;;;16.00;99.90;;;;;;5076258;28;20524;-74
2021/08/11 00:52:29;;;;;;;5.47;4.00;;;16.00;99.90;;;;;;5076409;28;20454;-75
2021/08/11 00:54:57;;;;;;;5.13;3.37;;;16.00;99.90;;;;;;5076117;28;20941;-75
2021/08/11 00:57:27;;;;;;;10.13;4.53;;;15.90;99.90;;;;;;5075727;28;20458;-75
2021/08/11 00:59:56;;;;;;;5.77;3.97;;;15.90;99.90;;;;;;5075770;28;20458;-75
2021/08/11 01:02:23;;;;;;;4.17;3.77;;;15.90;99.90;;;;;;5075994;28;20796;-75
2021/08/11 01:04:54;;;;;;;4.50;3.80;;;15.90;99.90;;;;;;5076312;28;20481;-75
2021/08/11 01:07:24;;;;;;;6.80;4.40;;;15.90;99.90;;;;;;5075265;28;20771;-75
2021/08/11 01:09:52;;;;;;;4.27;3.60;;;15.90;99.90;;;;;;5075492;28;20454;-74
2021/08/11 01:12:22;;;;;;;4.80;4.07;;;15.90;99.90;;;;;;5075439;28;20462;-74
2021/08/11 01:14:49;;;;;;;6.80;4.33;;;15.90;99.90;;;;;;5075036;28;20755;-74
2021/08/11 01:17:16;;;;;;;7.23;4.30;;;15.90;99.90;;;;;;5075564;28;20544;-75
2021/08/11 01:19:42;;;;;;;5.77;4.60;;;15.90;99.90;;;;;;5075111;28;21033;-75
2021/08/11 01:22:12;;;;;;;5.97;4.70;;;15.90;99.90;;;;;;5075338;28;20807;-75
2021/08/11 01:24:46;;;;;;;5.70;5.20;;;15.80;99.90;;;;;;5075423;28;20466;-74
2021/08/11 01:27:39;;;;;;;6.47;5.20;;;15.80;99.90;;;;;;5074949;28;20514;-76
2021/08/11 01:30:12;;;;;;;5.53;4.60;;;15.70;99.90;;;;;;5075402;28;20442;-75
2021/08/11 01:33:08;;;;;;;6.67;4.60;;;15.70;99.90;;;;;;5074814;28;20438;-75
2021/08/11 01:35:41;;;;;;;6.50;5.73;;;15.60;99.90;;;;;;5075099;28;20564;-74
2021/08/11 01:38:14;;;;;;;5.93;5.27;;;15.60;99.90;;;;;;5074781;28;20434;-74
2021/08/11 01:40:45;;;;;;;6.47;5.80;;;15.50;99.90;;;;;;5073845;28;20490;-75
2021/08/11 01:43:12;;;;;;;6.47;5.87;;;15.60;99.90;;;;;;5074897;28;20466;-74
2021/08/11 01:45:42;;;;;;;6.73;5.40;;;15.60;99.90;;;;;;5074545;28;20894;-74
2021/08/11 01:48:13;;;;;;;6.30;5.70;;;15.50;99.90;;;;;;5074510;28;20655;-74
2021/08/11 01:50:45;;;;;;;9.10;6.77;;;15.50;99.90;;;;;;5074830;28;20442;-74
2021/08/11 01:53:17;;;;;;;7.07;6.37;;;15.50;99.90;;;;;;5074609;28;20534;-75
2021/08/11 01:55:45;;;;;;;6.80;6.10;;;15.40;99.90;;;;;;5075012;28;20447;-74
2021/08/11 01:58:12;;;;;;;9.23;7.63;;;15.40;99.90;;;;;;5074490;28;20454;-75
2021/08/11 02:00:39;;;;;;;7.77;6.60;;;15.40;99.90;;;;;;5074760;28;20523;-75
2021/08/11 02:03:07;;;;;;;6.53;5.83;;;15.40;99.90;;;;;;5074690;28;20494;-75
2021/08/11 02:05:34;;;;;;;6.97;6.27;;;15.40;99.90;;;;;;5074351;28;20465;-75
2021/08/11 02:08:04;;;;;;;6.53;5.90;;;15.30;99.90;;;;;;5074836;28;20789;-75
2021/08/11 02:10:31;;;;;;;8.37;6.07;;;15.40;99.90;;;;;;5074412;28;20553;-74
2021/08/11 02:13:00;;;;;;;6.67;5.97;;;15.40;99.90;;;;;;5074746;28;20553;-74
2021/08/11 02:15:27;;;;;;;8.20;5.47;;;15.30;99.90;;;;;;5074487;28;20760;-74
2021/08/11 02:17:54;;;;;;;6.50;5.80;;;15.40;99.90;;;;;;5074281;28;20459;-74
2021/08/11 02:20:20;;;;;;;6.03;5.40;;;15.40;99.90;;;;;;5074472;28;20454;-74
2021/08/11 02:22:47;;;;;;;6.20;5.53;;;15.40;99.90;;;;;;5074191;28;20954;-75
2021/08/11 02:25:16;;;;;;;6.40;5.80;;;15.40;99.90;;;;;;5074130;28;20454;-75
2021/08/11 02:27:50;;;;;;;7.63;6.00;;;15.40;99.90;;;;;;5074570;28;20540;-74
2021/08/11 02:30:22;;;;;;;6.63;5.93;;;15.40;99.90;;;;;;5074031;28;20465;-74
2021/08/11 02:32:52;;;;;;;7.73;6.17;;;15.40;99.90;;;;;;5074053;28;20450;-74
2021/08/11 02:35:24;;;;;;;7.17;6.47;;;15.40;99.90;;;;;;5074270;28;20473;-74
2021/08/11 02:37:56;;;;;;;6.53;5.77;;;15.40;99.90;;;;;;5074190;28;20438;-75
2021/08/11 02:40:33;;;;;;;6.53;5.67;;;15.30;99.90;;;;;;5074227;28;20510;-75
2021/08/11 02:43:05;;;;;;;5.80;5.17;;;15.30;99.90;;;;;;5074163;28;20490;-75
2021/08/11 02:45:33;;;;;;;9.60;6.50;;;15.30;99.90;;;;;;5074214;28;20449;-74
2021/08/11 02:48:01;;;;;;;6.40;5.80;;;15.30;99.90;;;;;;5073873;28;20493;-75
2021/08/11 02:50:28;;;;;;;8.10;6.27;;;15.30;99.90;;;;;;5074257;28;20748;-74
2021/08/11 02:52:56;;;;;;;8.10;6.40;;;15.30;99.90;;;;;;5077544;28;20454;-74
2021/08/11 02:55:25;;;;;;;7.73;6.10;;;15.30;99.90;;;;;;5078219;28;20483;-75
2021/08/11 02:57:52;;;;;;;7.87;6.60;;;15.30;99.90;;;;;;5078302;28;20795;-74
2021/08/11 03:00:20;;;;;;;8.20;6.17;;;15.30;99.90;;;;;;5078322;28;20454;-74
2021/08/11 03:02:47;;;;;;;8.30;6.27;;;15.20;99.90;;;;;;5077791;28;20962;-75
2021/08/11 03:05:14;;;;;;;6.40;5.80;;;15.20;99.90;;;;;;5077895;28;20470;-75
2021/08/11 03:07:42;;;;;;;7.10;6.10;;;15.20;99.90;;;;;;5077864;28;20481;-74
2021/08/11 03:10:11;;;;;;;6.80;5.53;;;15.20;99.90;;;;;;5077784;28;20769;-75
2021/08/11 03:12:39;;;;;;;7.10;6.00;;;15.20;99.90;;;;;;5077378;28;20450;-74
2021/08/11 03:15:09;;;;;;;7.87;6.43;;;15.20;99.90;;;;;;5077888;28;20465;-74
2021/08/11 03:17:36;;;;;;;6.40;5.80;;;15.20;99.90;;;;;;5077771;28;20458;-74
2021/08/11 03:20:04;;;;;;;11.00;6.60;;;15.20;99.90;;;;;;5077378;28;20525;-74
2021/08/11 03:22:31;;;;;;;10.00;7.87;;;15.20;99.90;;;;;;5077595;28;20477;-74
2021/08/11 03:24:57;;;;;;;7.60;6.63;;;15.20;99.90;;;;;;5077861;28;20549;-74
2021/08/11 03:27:24;;;;;;;9.13;7.50;;;15.10;99.90;;;;;;5077446;28;20462;-74
2021/08/11 03:29:52;;;;;;;9.63;7.63;;;15.10;99.90;;;;;;5077707;28;20457;-74
2021/08/11 03:32:19;;;;;;;11.70;7.83;;;15.10;99.90;;;;;;5077466;28;20910;-74
2021/08/11 03:34:46;;;;;;;8.30;7.50;;;15.00;99.90;;;;;;5077732;28;20466;-75
2021/08/11 03:37:14;;;;;;;11.60;8.07;;;15.00;99.90;;;;;;5077314;28;20454;-74
2021/08/11 03:39:41;;;;;;;9.13;8.23;;;15.00;99.90;;;;;;5076883;28;20488;-74
2021/08/11 03:42:08;;;;;;;9.90;8.27;;;15.00;99.90;;;;;;5077213;28;20493;-74
2021/08/11 03:44:35;;;;;;;11.30;9.27;;;15.00;99.90;;;;;;5077179;28;20462;-74
2021/08/11 03:47:03;;;;;;;8.50;7.60;;;15.00;99.90;;;;;;5076831;28;20461;-74
2021/08/11 03:49:30;;;;;;;10.73;8.30;;;15.00;99.90;;;;;;5076853;28;20458;-75
2021/08/11 03:51:57;;;;;;;11.43;9.40;;;15.00;99.90;;;;;;5077230;28;20458;-74
2021/08/11 03:54:23;;;;;;;13.87;9.27;;;15.00;99.90;;;;;;5077560;28;20482;-74
2021/08/11 03:56:50;;;;;;;9.40;8.40;;;15.00;99.90;;;;;;5076795;28;20505;-74
2021/08/11 03:59:17;;;;;;;10.30;8.83;;;15.00;99.90;;;;;;5076494;28;20458;-74
2021/08/11 04:01:44;;;;;;;11.07;8.90;;;15.00;99.90;;;;;;5076447;28;20907;-74
2021/08/11 04:04:12;;;;;;;10.30;9.27;;;15.00;99.90;;;;;;5076559;28;20466;-75
2021/08/11 04:06:38;;;;;;;12.23;9.33;;;15.00;99.90;;;;;;5077463;28;20486;-74
2021/08/11 04:09:05;;;;;;;9.47;8.30;;;15.00;99.90;;;;;;5077910;28;20776;-75
2021/08/11 04:11:32;;;;;;;10.53;9.43;;;15.00;99.90;;;;;;5079506;28;20485;-74
2021/08/11 04:13:59;;;;;;;11.73;9.80;;;15.10;99.90;;;;;;5080913;28;20450;-74
2021/08/11 04:16:25;;;;;;;10.60;8.33;;;15.00;99.90;;;;;;5076974;28;20459;-74
2021/08/11 04:18:52;;;;;;;9.93;8.90;;;15.00;99.90;;;;;;5076767;28;20454;-74
2021/08/11 04:21:20;;;;;;;9.90;9.00;;;15.00;99.90;;;;;;5076338;28;20454;-74
2021/08/11 04:23:47;;;;;;;10.70;9.60;;;15.00;99.90;;;;;;5076209;28;20478;-74
2021/08/11 04:26:14;;;;;;;11.03;9.30;;;15.00;99.90;;;;;;5076308;28;20458;-75
2021/08/11 04:28:44;;;;;;;12.40;8.87;;;15.00;99.90;;;;;;5076712;28;20450;-74
2021/08/11 04:31:11;;;;;;;11.90;9.60;;;15.10;99.90;;;;;;5076781;28;20922;-75
2021/08/11 04:33:38;;;;;;;10.60;9.50;;;15.00;99.90;;;;;;5077237;28;20457;-75
2021/08/11 04:36:05;;;;;;;11.60;9.87;;;15.10;99.90;;;;;;5076662;28;20458;-74
2021/08/11 04:38:33;;;;;;;11.10;9.60;;;15.10;99.90;;;;;;5078090;28;20490;-74
2021/08/11 04:41:00;;;;;;;10.63;9.53;;;15.10;99.90;;;;;;5078242;28;20559;-74
2021/08/11 04:43:28;;;;;;;13.53;10.17;;;15.10;99.90;;;;;;5079726;28;20965;-74
2021/08/11 04:45:54;;;;;;;11.30;9.33;;;15.20;99.90;;;;;;5079947;28;20490;-74
2021/08/11 04:48:21;;;;;;;11.30;10.10;;;15.30;99.90;;;;;;5079011;28;20470;-74
2021/08/11 04:50:49;;;;;;;10.70;9.60;;;15.20;99.90;;;;;;5081063;28;20497;-74
2021/08/11 04:53:16;;;;;;;13.03;10.23;;;15.30;99.90;;;;;;5079926;28;20468;-74
2021/08/11 04:55:44;;;;;;;11.77;10.20;;;15.30;99.90;;;;;;5080466;28;20476;-74
2021/08/11 04:58:11;;;;;;;11.37;10.13;;;15.30;99.90;;;;;;5080881;28;20454;-74
2021/08/11 05:00:37;;;;;;;12.00;10.17;;;15.30;99.90;;;;;;5080104;28;20454;-74
2021/08/11 05:03:04;;;;;;;11.93;10.70;;;15.40;99.90;;;;;;5079837;28;20504;-73
2021/08/11 05:05:31;;;;;;;14.20;10.60;;;15.40;99.90;;;;;;5082533;28;20454;-73
2021/08/11 05:07:58;;;;;;;14.03;10.03;;;15.40;99.90;;;;;;5084478;28;20459;-74
2021/08/11 05:10:25;;;;;;;12.53;10.70;;;15.40;99.90;;;;;;5085802;28;20454;-73
2021/08/11 05:12:53;;;;;;;14.67;10.80;;;15.40;99.90;;;;;;5085177;28;20465;-74
2021/08/11 05:15:20;;;;;;;11.00;9.90;;;15.40;99.90;;;;;;5084095;28;20472;-73
2021/08/11 05:17:46;;;;;;;12.30;10.73;;;15.40;99.90;;;;;;5085577;28;20462;-74
2021/08/11 05:20:14;;;;;;;12.90;10.57;;;15.40;99.90;;;;;;5084666;28;20458;-74
2021/08/11 05:22:41;;;;;;;16.80;11.73;;;15.50;99.90;;;;;;5085484;28;20482;-74
2021/08/11 05:25:08;;;;;;;12.40;10.77;;;15.50;99.90;;;;;;5086559;28;20450;-74
2021/08/11 05:27:35;;;;;;;12.50;10.30;;;15.50;99.90;;;;;;5086167;28;20477;-74
2021/08/11 05:30:05;;;;;;;12.77;10.57;;;15.50;99.90;;;;;;5085989;28;20450;-74
2021/08/11 05:32:31;;;;;;;13.10;11.70;;;15.50;99.90;;;;;;5086221;28;20454;-74
2021/08/11 05:34:58;;;;;;;15.67;11.50;;;15.50;99.90;;;;;;5085648;28;20469;-74
2021/08/11 05:37:25;;;;;;;16.13;11.77;;;15.50;99.90;;;;;;5083100;28;20454;-74
2021/08/11 05:39:52;;;;;;;15.80;12.20;;;15.60;99.90;;;;;;5081472;28;20497;-75
2021/08/11 05:42:19;;;;;;;12.77;11.40;;;15.60;99.90;;;;;;5076623;28;20550;-74
2021/08/11 05:44:46;;;;;;;14.63;12.17;;;15.60;99.90;;;;;;5076349;28;20462;-74
2021/08/11 05:47:14;;;;;;;14.00;12.17;;;15.60;99.90;;;;;;5075807;28;20465;-74
2021/08/11 05:49:41;;;;;;;15.13;12.30;;;15.60;99.90;;;;;;5075237;28;20458;-74
2021/08/11 05:52:08;;;;;;;16.03;12.50;;;15.60;99.90;;;;;;5075456;28;20466;-74
2021/08/11 05:54:35;;;;;;;16.43;12.83;;;15.70;99.90;;;;;;5075219;28;20458;-75
2021/08/11 05:57:02;;;;;;;15.57;11.70;;;15.80;99.90;;;;;;5075038;28;20461;-74
2021/08/11 05:59:29;;;;;;;15.10;12.57;;;15.80;99.90;;;;;;5075064;28;20458;-74
2021/08/11 06:01:56;;;;;;;16.40;12.53;;;15.80;99.90;;;;;;5075227;28;20548;-74
2021/08/11 06:04:25;;;;;;;16.40;12.83;;;15.80;99.90;;;;;;5074785;28;20478;-74
2021/08/11 06:06:52;;;;;;;18.90;12.47;;;15.90;99.90;;;;;;5074645;28;20462;-73
2021/08/11 06:09:19;;;;;;;16.47;13.87;;;16.00;99.90;;;;;;5074742;28;20461;-74
2021/08/11 06:11:46;;;;;;;17.20;12.37;;;16.00;99.90;;;;;;5074946;28;20747;-74
2021/08/11 06:14:13;;;;;;;15.30;12.57;;;16.00;99.90;;;;;;5074247;28;20595;-74
2021/08/11 06:16:40;;;;;;;21.20;12.43;;;16.10;99.90;;;;;;5074520;28;20455;-74
2021/08/11 06:19:06;;;;;;;15.53;12.30;;;16.10;99.90;;;;;;5073909;28;20538;-73
2021/08/11 06:21:34;;;;;;;18.60;13.20;;;16.10;99.90;;;;;;5074184;28;20466;-74
2021/08/11 06:24:01;;;;;;;16.07;13.23;;;16.20;99.90;;;;;;5074200;28;20501;-74
2021/08/11 06:26:28;;;;;;;15.20;12.07;;;16.30;99.90;;;;;;5073839;28;20481;-74
2021/08/11 06:28:55;;;;;;;17.40;13.13;;;16.40;99.90;;;;;;5074880;28;20764;-74
2021/08/11 06:31:24;;;;;;;15.77;12.30;;;16.50;99.90;;;;;;5074007;28;20454;-74
2021/08/11 06:33:51;;;;;;;12.90;11.57;;;16.50;99.90;;;;;;5074093;28;20454;-73
2021/08/11 06:36:18;;;;;;;13.97;11.70;;;16.50;99.90;;;;;;5073963;28;20454;-74
2021/08/11 06:38:46;;;;;;;13.00;11.17;;;16.60;99.90;;;;;;5074207;28;20458;-73
2021/08/11 06:41:16;;;;;;;14.03;12.23;;;16.60;99.90;;;;;;5073736;28;20993;-76
2021/08/11 06:43:43;;;;;;;13.27;11.37;;;16.70;99.90;;;;;;5074355;28;20582;-74
2021/08/11 06:46:10;;;;;;;15.80;13.00;;;16.80;99.90;;;;;;5073770;28;20450;-75
2021/08/11 06:48:37;;;;;;;14.03;11.70;;;16.80;99.90;;;;;;5073684;28;20462;-74
2021/08/11 06:51:04;;;;;;;13.57;12.10;;;16.80;99.90;;;;;;5073806;28;20489;-74
2021/08/11 06:53:31;;;;;;;13.77;12.20;;;16.80;99.90;;;;;;5073769;28;20795;-75
2021/08/11 06:56:01;;;;;;;14.33;12.10;;;16.90;99.90;;;;;;5073394;28;20454;-76
2021/08/11 06:58:28;;;;;;;17.53;13.00;;;16.90;99.90;;;;;;5073836;28;20464;-76
2021/08/11 07:00:59;;;;;;;17.17;12.53;;;16.90;99.90;;;;;;5073776;28;20534;-75
2021/08/11 07:03:25;;;;;;;13.30;11.90;;;16.80;99.90;;;;;;5073547;28;20495;-74
2021/08/11 07:05:52;;;;;;;13.57;12.23;;;16.90;99.90;;;;;;5074396;28;20454;-74
2021/08/11 07:08:20;;;;;;;12.90;11.37;;;17.00;99.90;;;;;;5073868;28;20457;-74
2021/08/11 07:10:47;;;;;;;13.03;11.37;;;16.90;99.90;;;;;;5074305;28;20533;-74
2021/08/11 07:13:15;;;;;;;14.13;11.60;;;16.90;99.90;;;;;;5075005;28;20525;-76
2021/08/11 07:15:42;;;;;;;16.27;12.80;;;16.90;99.90;;;;;;5074543;28;20469;-74
2021/08/11 07:18:08;;;;;;;12.03;10.73;;;16.90;99.90;;;;;;5075626;28;20449;-74
2021/08/11 07:20:35;;;;;;;12.90;11.20;;;17.00;99.90;;;;;;5075892;28;20458;-75
2021/08/11 07:23:02;;;;;;;13.00;10.63;;;17.10;99.90;;;;;;5075787;28;20504;-75
2021/08/11 07:25:29;;;;;;;11.90;10.17;;;17.20;99.90;;;;;;5076188;28;20537;-75
2021/08/11 07:27:56;;;;;;;10.50;9.40;;;17.30;99.90;;;;;;5075349;28;20515;-74
2021/08/11 07:30:24;;;;;;;11.07;9.60;;;17.30;99.90;;;;;;5074331;28;20477;-75
2021/08/11 07:32:51;;;;;;;10.47;9.33;;;17.40;99.90;;;;;;5074559;28;20922;-74
2021/08/11 07:35:18;;;;;;;9.33;8.43;;;17.50;99.90;;;;;;5073890;28;20554;-75
2021/08/11 07:37:47;;;;;;;8.97;8.07;;;17.60;99.90;;;;;;5075362;28;20469;-74
2021/08/11 07:40:14;;;;;;;14.00;8.57;;;17.70;99.90;;;;;;5077513;28;20542;-77
2021/08/11 07:42:41;;;;;;;11.30;8.07;;;17.70;99.90;;;;;;5077307;28;20462;-75
2021/08/11 07:45:08;;;;;;;11.53;9.20;;;17.80;99.90;;;;;;5078461;28;20942;-75
2021/08/11 07:47:37;;;;;;;9.57;7.90;;;17.90;99.90;;;;;;5078065;28;20458;-74
2021/08/11 07:50:04;;;;;;;8.53;7.20;;;17.90;99.90;;;;;;5077924;28;20450;-75
2021/08/11 07:52:31;;;;;;;8.83;7.93;;;18.00;99.90;;;;;;5078616;28;20548;-75
2021/08/11 07:54:58;;;;;;;10.53;7.47;;;18.00;99.90;;;;;;5077370;28;20497;-75
2021/08/11 07:57:25;;;;;;;10.27;7.40;;;18.10;99.90;;;;;;5077211;28;20465;-75
2021/08/11 07:59:52;;;;;;;8.10;7.17;;;18.20;99.90;;;;;;5076982;28;20473;-75
2021/08/11 08:02:19;;;;;;;12.77;9.17;;;18.30;99.90;;;;;;5077377;28;20791;-75
2021/08/11 08:04:47;;;;;;;7.47;6.53;;;18.40;99.90;;;;;;5076965;28;20470;-74
2021/08/11 08:07:13;;;;;;;10.30;7.47;;;18.60;99.90;;;;;;5076732;28;20458;-74
2021/08/11 08:09:40;;;;;;;8.80;7.60;;;18.70;99.90;;;;;;5076983;28;20799;-74
2021/08/11 08:12:08;;;;;;;10.30;7.60;;;18.60;99.90;;;;;;5076722;28;20458;-74
2021/08/11 08:14:34;;;;;;;7.83;7.07;;;18.60;99.90;;;;;;5076421;28;20454;-74
2021/08/11 08:17:01;;;;;;;7.40;6.43;;;18.50;99.90;;;;;;5076395;28;20459;-75
2021/08/11 08:19:28;;;;;;;8.30;5.87;;;18.50;99.90;;;;;;5076463;28;20465;-75
2021/08/11 08:21:56;;;;;;;8.90;6.23;;;18.50;99.90;;;;;;5076263;28;20477;-74
2021/08/11 08:24:25;;;;;;;8.40;5.77;;;18.60;99.90;;;;;;5076604;28;20874;-74
2021/08/11 08:26:52;;;;;;;6.50;5.90;;;18.70;99.90;;;;;;5076323;28;20462;-74
2021/08/11 08:29:19;;;;;;;10.63;6.50;;;18.80;99.90;;;;;;5076533;28;20817;-75
2021/08/11 08:31:46;;;;;;;8.47;6.10;;;18.80;99.90;;;;;;5075993;28;20459;-75
2021/08/11 08:34:12;;;;;;;9.87;7.00;;;18.80;99.90;;;;;;5076023;28;20458;-75
2021/08/11 08:36:39;;;;;;;6.93;6.03;;;18.80;99.90;;;;;;5076164;28;20533;-74
2021/08/11 08:39:07;;;;;;;7.10;5.40;;;18.80;99.90;;;;;;5075701;28;20454;-74
2021/08/11 08:41:35;;;;;;;6.03;5.20;;;18.80;99.90;;;;;;5076141;28;20439;-75
2021/08/11 08:44:02;;;;;;;7.07;5.33;;;18.90;99.90;;;;;;5076151;28;20489;-75
2021/08/11 08:46:30;;;;;;;6.97;6.30;;;19.00;99.90;;;;;;5076128;28;20465;-75
2021/08/11 08:48:58;;;;;;;7.20;5.77;;;19.10;99.90;;;;;;5076164;28;20465;-75
2021/08/11 08:51:26;;;;;;;6.67;5.57;;;19.20;99.90;;;;;;5075970;28;20469;-74
2021/08/11 08:53:53;;;;;;;5.50;5.00;;;19.20;99.90;;;;;;5076301;28;20461;-75
2021/08/11 08:56:21;;;;;;;7.60;5.20;;;19.30;99.90;;;;;;5075698;28;20465;-74
2021/08/11 08:58:48;;;;;;;5.23;4.83;;;19.40;99.90;;;;;;5076198;28;20458;-76
2021/08/11 09:01:15;;;;;;;6.77;4.63;;;19.40;99.90;;;;;;5076141;28;21013;-75
2021/08/11 09:03:42;;;;;;;6.03;4.63;;;19.60;99.90;;;;;;5075808;28;20808;-75
2021/08/11 09:06:08;;;;;;;7.77;4.97;;;19.70;99.90;;;;;;5076029;28;20454;-75
2021/08/11 09:08:35;;;;;;;4.93;4.30;;;19.80;99.90;;;;;;5075830;28;20533;-75
2021/08/11 09:11:14;;;;;;;5.13;4.63;;;19.90;99.90;;;;;;5075808;28;20458;-74
2021/08/11 09:13:42;;;;;;;4.33;3.87;;;19.80;99.90;;;;;;5075694;28;20853;-74
2021/08/11 09:16:11;;;;;;;3.40;3.07;;;19.80;99.90;;;;;;5075856;28;20458;-74
2021/08/11 09:18:38;;;;;;;5.17;4.20;;;19.70;99.90;;;;;;5075585;28;20458;-74
2021/08/11 09:21:12;;;;;;;4.83;4.20;;;19.80;99.90;;;;;;5075473;28;20458;-74
2021/08/11 09:23:40;;;;;;;5.10;3.50;;;19.70;99.90;;;;;;5075400;28;20519;-74
2021/08/11 09:26:08;;;;;;;4.80;3.80;;;19.70;99.90;;;;;;5075546;28;20497;-74
2021/08/11 09:28:38;;;;;;;5.00;3.90;;;19.70;99.90;;;;;;5075463;28;20454;-74
2021/08/11 09:31:21;;;;;;;7.30;4.10;;;19.80;99.90;;;;;;5075327;28;20450;-74
2021/08/11 09:33:50;;;;;;;4.30;3.90;;;19.90;99.90;;;;;;5075271;28;20521;-74
2021/08/11 09:36:17;;;;;;;4.27;3.87;;;19.90;99.90;;;;;;5075617;28;20472;-74
2021/08/11 09:38:57;;;;;;;4.73;3.43;;;20.00;99.90;;;;;;5075430;28;20462;-74
2021/08/11 09:41:25;;;;;;;5.73;4.00;;;20.00;99.90;;;;;;5074712;28;20470;-74
2021/08/11 09:44:04;;;;;;;3.90;3.50;;;20.10;99.90;;;;;;5074861;28;20892;-74
2021/08/11 09:46:32;;;;;;;4.67;4.27;;;20.20;99.90;;;;;;5075548;28;20438;-74
2021/08/11 09:49:00;;;;;;;5.13;4.27;;;20.20;99.90;;;;;;5075104;28;20529;-74
2021/08/11 09:51:27;;;;;;;3.70;3.40;;;20.10;99.90;;;;;;5075090;28;20495;-74
2021/08/11 09:53:54;;;;;;;4.20;3.30;;;20.10;99.90;;;;;;5075356;28;20545;-75
2021/08/11 09:56:32;;;;;;;4.03;3.17;;;20.00;99.90;;;;;;5075772;28;20786;-75
2021/08/11 09:59:02;;;;;;;4.93;3.37;;;20.10;99.90;;;;;;5076408;28;20442;-74
2021/08/11 10:01:29;;;;;;;4.50;3.27;;;20.30;99.90;;;;;;5075253;28;20454;-73
2021/08/11 10:03:59;;;;;;;4.53;3.87;;;20.50;99.90;;;;;;5076695;28;20743;-75
2021/08/11 10:06:32;;;;;;;4.77;3.40;;;20.60;99.90;;;;;;5076536;28;20469;-74
2021/08/11 10:09:12;;;;;;;4.20;3.80;;;20.80;99.90;;;;;;5076041;28;20488;-75
2021/08/11 10:11:43;;;;;;;5.43;3.50;;;20.90;99.90;;;;;;5075935;28;20443;-75
2021/08/11 10:14:11;;;;;;;5.50;3.97;;;20.90;99.90;;;;;;5076001;28;20760;-74
2021/08/11 10:16:39;;;;;;;4.40;3.33;;;20.90;99.90;;;;;;5076034;28;20469;-74
2021/08/11 10:19:09;;;;;;;3.97;3.30;;;20.70;99.90;;;;;;5076889;28;20462;-75
2021/08/11 10:21:37;;;;;;;4.67;3.60;;;20.70;99.90;;;;;;5077172;28;20460;-75
2021/08/11 10:24:05;;;;;;;3.97;3.57;;;20.80;99.90;;;;;;5075769;28;20492;-75
2021/08/11 10:26:33;;;;;;;3.80;3.40;;;20.90;99.90;;;;;;5076820;28;20458;-74
2021/08/11 10:29:00;;;;;;;6.13;3.73;;;21.00;99.90;;;;;;5076177;28;20462;-73
2021/08/11 10:31:26;;;;;;;5.20;3.87;;;21.20;99.90;;;;;;5075201;28;20458;-74
2021/08/11 10:33:54;;;;;;;4.50;3.80;;;21.30;99.90;;;;;;5075411;28;20465;-75
2021/08/11 10:36:22;;;;;;;4.27;3.63;;;21.40;99.90;;;;;;5074833;28;20477;-74
2021/08/11 10:38:48;;;;;;;4.40;4.00;;;21.50;99.90;;;;;;5074652;28;20466;-75
2021/08/11 10:41:15;;;;;;;4.50;4.10;;;21.50;99.90;;;;;;5074145;28;20486;-74
2021/08/11 10:43:43;;;;;;;6.53;4.00;;;21.30;99.90;;;;;;5075004;28;20447;-74
2021/08/11 10:46:15;;;;;;;6.60;4.07;;;21.30;99.90;;;;;;5076219;28;20486;-75
2021/08/11 10:48:42;;;;;;;4.13;3.73;;;21.30;99.90;;;;;;5074976;28;20443;-74
2021/08/11 10:51:09;;;;;;;4.37;2.93;;;21.30;99.90;;;;;;5073956;28;20473;-74
2021/08/11 10:53:37;;;;;;;3.60;3.30;;;21.20;99.90;;;;;;5074762;28;20486;-74
2021/08/11 10:56:04;;;;;;;3.77;3.30;;;21.30;99.90;;;;;;5074163;28;20446;-74
2021/08/11 10:58:40;;;;;;;7.27;3.90;;;21.50;99.90;;;;;;5073791;28;20469;-74
2021/08/11 11:01:33;;;;;;;3.90;3.07;;;21.60;99.90;;;;;;5074036;28;20909;-74
2021/08/11 11:04:01;;;;;;;7.53;3.57;;;21.70;99.90;;;;;;5073937;28;20557;-74
2021/08/11 11:06:51;;;;;;;3.37;3.07;;;21.70;99.90;;;;;;5073967;28;20452;-74
2021/08/11 11:09:21;;;;;;;3.00;2.70;;;21.70;99.90;;;;;;5073991;28;20427;-74
2021/08/11 11:11:48;;;;;;;3.50;2.87;;;21.70;99.90;;;;;;5074177;28;20450;-74
2021/08/11 11:14:52;;;;;;;3.40;3.10;;;21.60;99.90;;;;;;5078107;28;20527;-74
2021/08/11 11:17:20;;;;;;;4.13;3.17;;;21.60;99.90;;;;;;5078197;28;20759;-74
2021/08/11 11:20:29;;;;;;;3.47;2.80;;;21.70;99.90;;;;;;5077599;28;20454;-74
2021/08/11 11:23:01;;;;;;;3.37;3.07;;;21.80;99.90;;;;;;5078013;28;20430;-74
2021/08/11 11:26:01;;;;;;;3.60;3.30;;;22.00;99.90;;;;;;5078744;28;20545;-74
2021/08/11 11:28:54;;;;;;;3.20;2.90;;;22.20;99.90;;;;;;5077597;28;20758;-74
2021/08/11 11:31:51;;;;;;;4.80;3.30;;;22.40;99.90;;;;;;5077846;28;20454;-75
2021/08/11 11:34:23;;;;;;;4.30;2.83;;;22.90;99.90;;;;;;5016846;28;20445;-73
2021/08/11 11:37:24;;;;;;;3.23;2.90;;;23.10;99.90;;;;;;5065381;28;20489;-75
2021/08/11 11:40:17;;;;;;;4.17;3.60;;;24.00;99.90;;;;;;5077326;28;20477;-74
2021/08/11 11:42:46;;;;;;;3.50;3.20;;;25.00;99.90;;;;;;5062966;28;20549;-75
2021/08/11 11:45:16;;;;;;;3.47;2.73;;;25.80;99.90;;;;;;5077747;28;20521;-75
2021/08/11 11:48:11;;;;;;;7.87;2.77;;;26.30;99.90;;;;;;5077453;28;20464;-73
2021/08/11 11:50:45;;;;;;;3.63;2.63;;;26.60;99.90;;;;;;5077422;28;20485;-74
2021/08/11 11:53:36;;;;;;;3.73;2.70;;;26.50;99.90;;;;;;5077518;28;20445;-74
2021/08/11 11:56:11;;;;;;;3.07;2.80;;;26.10;99.90;;;;;;5061971;28;20466;-75
2021/08/11 11:58:44;;;;;;;6.90;2.90;;;26.00;99.90;;;;;;5077140;28;20441;-74
2021/08/11 12:01:12;;;;;;;4.40;2.90;;;26.00;99.90;;;;;;5076921;28;20438;-74
2021/08/11 12:03:41;;;;;;;2.90;2.67;;;26.20;99.90;;;;;;5077181;28;20530;-75
2021/08/11 12:06:10;;;;;;;2.90;2.70;;;25.90;99.90;;;;;;5076711;28;20473;-74
2021/08/11 12:08:38;;;;;;;3.40;3.10;;;25.90;99.90;;;;;;5076783;28;20854;-73
2021/08/11 12:11:08;;;;;;;4.40;2.70;;;26.00;99.90;;;;;;5076544;28;20549;-74
2021/08/11 12:13:45;;;;;;;3.37;3.07;;;26.00;99.90;;;;;;5076875;28;20469;-73
2021/08/11 12:16:13;;;;;;;3.03;2.73;;;25.90;99.90;;;;;;5076762;28;20472;-74
2021/08/11 12:18:42;;;;;;;3.03;2.67;;;26.00;99.90;;;;;;5077276;28;20514;-75
2021/08/11 12:21:10;;;;;;;5.53;2.93;;;26.00;99.90;;;;;;5076754;28;20520;-75
2021/08/11 12:23:37;;;;;;;3.80;3.00;;;26.40;99.90;;;;;;5076611;28;20497;-75
2021/08/11 12:26:05;;;;;;;5.00;3.10;;;26.60;99.90;;;;;;5076658;28;20489;-75
2021/08/11 12:28:35;;;;;;;4.23;3.30;;;26.70;99.90;;;;;;5076486;28;20776;-74
2021/08/11 12:31:06;;;;;;;3.33;3.03;;;26.70;99.90;;;;;;5076383;28;20458;-74
2021/08/11 12:33:36;;;;;;;3.10;2.80;;;26.80;99.90;;;;;;5076421;28;20442;-73
2021/08/11 12:36:03;;;;;;;3.37;2.90;;;26.70;99.90;;;;;;5076984;28;20766;-74
2021/08/11 12:38:32;;;;;;;3.37;2.80;;;26.80;99.90;;;;;;5076807;28;20918;-74
2021/08/11 12:41:13;;;;;;;3.17;2.87;;;27.30;99.90;;;;;;5075884;28;20486;-74
2021/08/11 12:43:40;;;;;;;3.50;3.20;;;28.20;99.90;;;;;;5076243;28;20442;-74
2021/08/11 12:46:09;;;;;;;2.97;2.73;;;29.30;99.90;;;;;;5076250;28;20490;-73
2021/08/11 12:48:36;;;;;;;2.90;2.70;;;30.20;98.80;;;;;;5076092;28;20515;-73
2021/08/11 12:51:06;;;;;;;2.83;2.63;;;30.40;95.00;;;;;;5075837;28;20469;-73